createdAt,value
2023-06-24T00:04:36.913Z,1.00
2023-06-24T00:09:41.800Z,1.30
2023-06-24T00:14:46.338Z,1.00
2023-06-24T00:19:49.974Z,1.33
2023-06-24T00:24:54.905Z,1.20
2023-06-24T00:29:58.498Z,0.90
2023-06-24T00:35:02.203Z,1.00
2023-06-24T00:40:15.923Z,1.33
2023-06-24T00:45:19.696Z,1.00
2023-06-24T00:50:23.522Z,1.10
2023-06-24T00:55:32.628Z,1.20
2023-06-24T01:00:36.640Z,1.27
2023-06-24T01:05:40.234Z,1.40
2023-06-24T01:10:46.148Z,1.43
2023-06-24T01:15:50.402Z,1.30
2023-06-24T01:20:57.940Z,1.70
2023-06-24T01:26:21.230Z,1.40
2023-06-24T01:31:37.631Z,1.13
2023-06-24T01:36:45.671Z,1.30
2023-06-24T01:41:55.976Z,2.10
2023-06-24T01:47:03.326Z,1.30
2023-06-24T01:52:09.694Z,1.20
2023-06-24T01:57:14.114Z,1.47
2023-06-24T02:02:21.503Z,1.77
2023-06-24T02:07:28.174Z,1.33
2023-06-24T02:12:32.881Z,1.20
2023-06-24T02:17:39.884Z,1.10
2023-06-24T02:22:43.613Z,1.53
2023-06-24T02:27:48.677Z,1.50
2023-06-24T02:32:53.912Z,1.20
2023-06-24T02:37:57.657Z,1.43
2023-06-24T02:43:01.975Z,1.50
2023-06-24T02:48:10.660Z,1.00
2023-06-24T02:53:14.872Z,1.20
2023-06-24T02:58:19.432Z,0.93
2023-06-24T03:03:37.458Z,1.23
2023-06-24T03:08:44.601Z,1.30
2023-06-24T03:13:48.200Z,1.30
2023-06-24T03:19:10.207Z,1.47
2023-06-24T03:24:14.162Z,1.20
2023-06-24T03:29:20.099Z,1.20
2023-06-24T03:34:34.349Z,1.33
2023-06-24T03:39:37.942Z,1.20
2023-06-24T03:44:42.804Z,1.30
2023-06-24T03:49:47.817Z,1.17
2023-06-24T03:54:52.006Z,0.90
2023-06-24T03:59:55.630Z,1.20
2023-06-24T04:05:00.621Z,0.77
2023-06-24T04:10:09.321Z,1.23
2023-06-24T04:15:14.128Z,1.27
2023-06-24T04:20:19.113Z,1.30
2023-06-24T04:25:22.711Z,1.23
2023-06-24T04:30:26.336Z,1.30
2023-06-24T04:35:32.067Z,1.27
2023-06-24T04:40:35.836Z,1.13
2023-06-24T04:45:39.397Z,1.20
2023-06-24T04:50:44.427Z,1.40
2023-06-24T04:55:48.127Z,1.30
2023-06-24T05:00:51.784Z,1.60
2023-06-24T05:05:56.773Z,1.50
2023-06-24T05:11:00.365Z,1.33
2023-06-24T05:16:03.929Z,1.60
2023-06-24T05:21:09.041Z,1.60
2023-06-24T05:26:13.117Z,1.10
2023-06-24T05:31:16.688Z,1.30
2023-06-24T05:36:23.582Z,1.17
2023-06-24T05:41:27.154Z,1.33
2023-06-24T05:46:30.833Z,1.70
2023-06-24T05:51:35.793Z,1.57
2023-06-24T05:56:40.330Z,1.10
2023-06-24T06:01:44.118Z,1.30
2023-06-24T06:06:49.099Z,1.47
2023-06-24T06:11:52.712Z,1.80
2023-06-24T06:16:56.264Z,1.40
2023-06-24T06:22:01.206Z,1.43
2023-06-24T06:27:05.108Z,1.50
2023-06-24T06:32:09.676Z,2.33
2023-06-24T06:37:14.559Z,1.63
2023-06-24T06:42:18.437Z,2.00
2023-06-24T06:47:22.074Z,1.63
2023-06-24T06:52:28.402Z,1.47
2023-06-24T06:57:32.828Z,1.73
2023-06-24T07:02:36.494Z,1.57
2023-06-24T07:07:41.442Z,1.70
2023-06-24T07:12:45.032Z,1.93
2023-06-24T07:17:48.624Z,1.63
2023-06-24T07:22:53.614Z,1.90
2023-06-24T07:27:57.365Z,2.00
2023-06-24T07:33:06.275Z,1.87
2023-06-24T07:38:11.206Z,2.37
2023-06-24T07:43:14.758Z,2.03
2023-06-24T07:48:18.315Z,1.80
2023-06-24T07:53:23.310Z,1.47
2023-06-24T07:58:26.893Z,1.90
2023-06-24T08:03:30.579Z,2.00
2023-06-24T08:08:36.710Z,1.60
2023-06-24T08:13:40.525Z,2.37
2023-06-24T08:18:44.858Z,1.73
2023-06-24T08:23:51.250Z,2.20
2023-06-24T08:29:30.819Z,1.90
2023-06-24T08:34:34.474Z,1.60
2023-06-24T08:39:39.926Z,1.70
2023-06-24T08:44:43.612Z,1.70
2023-06-24T08:49:50.690Z,1.50
2023-06-24T08:54:59.509Z,1.30
2023-06-24T09:00:04.277Z,1.43
2023-06-24T09:05:08.745Z,1.80
2023-06-24T09:10:32.431Z,1.70
2023-06-24T09:15:36.856Z,1.63
2023-06-24T09:20:45.935Z,1.57
2023-06-24T09:25:59.839Z,2.23
2023-06-24T09:31:18.851Z,2.60
2023-06-24T09:36:23.690Z,2.17
2023-06-24T09:41:29.387Z,1.80
2023-06-24T09:46:33.990Z,1.50
2023-06-24T09:51:40.846Z,1.53
2023-06-24T09:56:50.814Z,1.60
2023-06-24T10:01:55.664Z,1.40
2023-06-24T10:07:01.168Z,2.07
2023-06-24T10:12:07.059Z,1.57
2023-06-24T10:17:10.666Z,1.67
2023-06-24T10:22:14.341Z,1.63
2023-06-24T10:27:22.770Z,1.10
2023-06-24T10:32:26.621Z,2.40
2023-06-24T10:37:34.403Z,1.43
2023-06-24T10:42:43.993Z,1.50
2023-06-24T10:47:49.299Z,1.20
2023-06-24T10:52:56.548Z,1.10
2023-06-24T10:58:12.754Z,1.50
2023-06-24T11:03:17.723Z,1.40
2023-06-24T11:08:23.023Z,1.40
2023-06-24T11:13:27.999Z,1.30
2023-06-24T11:18:40.045Z,1.67
2023-06-24T11:23:44.016Z,1.10
2023-06-24T11:28:50.480Z,2.17
2023-06-24T11:33:54.239Z,1.30
2023-06-24T11:38:57.900Z,1.33
2023-06-24T11:44:02.884Z,1.23
2023-06-24T11:49:06.962Z,1.30
2023-06-24T11:54:10.522Z,1.37
2023-06-24T11:59:23.797Z,1.37
2023-06-24T12:04:30.718Z,1.53
2023-06-24T12:09:34.465Z,1.30
2023-06-24T12:14:39.568Z,1.00
2023-06-24T12:19:47.277Z,1.70
2023-06-24T12:24:50.857Z,1.37
2023-06-24T12:29:55.790Z,1.20
2023-06-24T12:34:59.394Z,0.87
2023-06-24T12:40:03.149Z,1.50
2023-06-24T12:45:09.705Z,1.00
2023-06-24T12:50:13.372Z,1.30
2023-06-24T12:55:17.371Z,1.20
2023-06-24T13:00:23.836Z,1.20
2023-06-24T13:05:27.489Z,1.53
2023-06-24T13:10:31.108Z,1.30
2023-06-24T13:15:36.427Z,0.90
2023-06-24T13:20:39.949Z,0.90
2023-06-24T13:25:43.508Z,1.40
2023-06-24T13:30:48.637Z,1.40
2023-06-24T13:35:52.386Z,1.07
2023-06-24T13:40:55.956Z,2.03
2023-06-24T13:46:01.379Z,1.30
2023-06-24T13:51:05.030Z,1.10
2023-06-24T13:56:08.616Z,1.30
2023-06-24T14:01:13.774Z,1.97
2023-06-24T14:06:18.898Z,1.30
2023-06-24T14:11:22.750Z,1.20
2023-06-24T14:16:27.708Z,1.30
2023-06-24T14:21:32.419Z,1.43
2023-06-24T14:26:36.213Z,2.33
2023-06-24T14:31:41.306Z,0.93
2023-06-24T14:36:45.438Z,1.33
2023-06-24T14:41:49.193Z,1.20
2023-06-24T14:46:54.231Z,1.60
2023-06-24T14:51:57.808Z,1.10
2023-06-24T14:57:01.411Z,1.20
2023-06-24T15:02:07.058Z,1.37
2023-06-24T15:07:10.940Z,1.50
2023-06-24T15:12:14.780Z,1.20
2023-06-24T15:17:20.169Z,1.10
2023-06-24T15:22:24.614Z,1.13
2023-06-24T15:27:28.276Z,1.30
2023-06-24T15:32:33.231Z,1.17
2023-06-24T15:37:36.830Z,1.20
2023-06-24T15:42:40.387Z,0.97
2023-06-24T15:47:45.356Z,1.03
2023-06-24T15:52:48.920Z,1.10
2023-06-24T15:57:52.488Z,0.73
2023-06-24T16:02:57.506Z,1.20
2023-06-24T16:08:01.337Z,1.20
2023-06-24T16:13:04.907Z,1.07
2023-06-24T16:18:10.010Z,0.80
2023-06-24T16:23:14.060Z,1.10
2023-06-24T16:28:18.714Z,1.10
2023-06-24T16:33:23.697Z,0.70
2023-06-24T16:38:27.289Z,1.10
2023-06-24T16:43:30.881Z,0.80
2023-06-24T16:48:36.792Z,1.33
2023-06-24T16:53:40.336Z,0.80
2023-06-24T16:58:43.989Z,1.10
2023-06-24T17:03:49.108Z,1.33
2023-06-24T17:08:52.731Z,1.13
2023-06-24T17:13:56.321Z,0.97
2023-06-24T17:19:01.251Z,1.10
2023-06-24T17:24:05.110Z,1.03
2023-06-24T17:29:09.044Z,0.70
2023-06-24T17:34:14.011Z,1.30
2023-06-24T17:39:17.582Z,0.90
2023-06-24T17:44:21.483Z,0.80
2023-06-24T17:49:26.797Z,0.80
2023-06-24T17:54:30.367Z,1.10
2023-06-24T17:59:33.961Z,1.53
2023-06-24T18:04:38.913Z,0.80
2023-06-24T18:09:42.521Z,0.70
2023-06-24T18:14:46.116Z,0.70
2023-06-24T18:19:51.020Z,0.90
2023-06-24T18:24:54.889Z,0.80
2023-06-24T18:29:58.724Z,0.67
2023-06-24T18:35:03.822Z,0.60
2023-06-24T18:40:08.763Z,0.70
2023-06-24T18:45:12.825Z,0.87
2023-06-24T18:50:17.880Z,0.90
2023-06-24T18:55:21.573Z,0.80
2023-06-24T19:00:25.168Z,0.70
2023-06-24T19:05:30.596Z,0.60
2023-06-24T19:10:34.278Z,0.70
2023-06-24T19:15:37.991Z,0.83
2023-06-24T19:20:45.569Z,0.60
2023-06-24T19:25:49.838Z,0.70
2023-06-24T19:30:53.460Z,0.73
2023-06-24T19:35:58.583Z,0.67
2023-06-24T19:41:02.286Z,0.70
2023-06-24T19:46:05.985Z,0.87
2023-06-24T19:51:10.987Z,0.70
2023-06-24T19:56:14.505Z,0.70
2023-06-24T20:01:18.160Z,0.60
2023-06-24T20:06:23.283Z,0.70
2023-06-24T20:11:26.907Z,0.90
2023-06-24T20:16:30.485Z,0.63
2023-06-24T20:21:35.431Z,1.13
2023-06-24T20:26:40.643Z,1.10
2023-06-24T20:31:44.348Z,1.00
2023-06-24T20:36:49.523Z,0.93
2023-06-24T20:41:53.146Z,0.80
2023-06-24T20:46:56.708Z,0.90
2023-06-24T20:52:01.787Z,1.10
2023-06-24T20:57:05.945Z,1.03
2023-06-24T21:02:09.514Z,1.00
2023-06-24T21:07:14.728Z,1.37
2023-06-24T21:12:18.359Z,1.37
2023-06-24T21:17:21.975Z,1.20
2023-06-24T21:22:27.255Z,1.10
2023-06-24T21:27:30.831Z,1.00
2023-06-24T21:32:34.509Z,1.20
2023-06-24T21:37:39.659Z,1.20
2023-06-24T21:42:43.264Z,1.30
2023-06-24T21:47:46.944Z,1.50
2023-06-24T21:52:52.027Z,3.83
2023-06-24T21:57:55.625Z,2.57
2023-06-24T22:03:02.952Z,2.20
2023-06-24T22:08:08.305Z,2.20
2023-06-24T22:13:11.972Z,2.10
2023-06-24T22:18:15.671Z,1.60
2023-06-24T22:23:20.704Z,1.70
2023-06-24T22:28:24.299Z,1.50
2023-06-24T22:33:27.868Z,1.60
2023-06-24T22:38:32.876Z,1.40
2023-06-24T22:43:37.769Z,2.00
2023-06-24T22:48:41.397Z,1.53
2023-06-24T22:53:47.064Z,1.80
2023-06-24T22:58:50.655Z,1.77
2023-06-24T23:03:54.783Z,2.50
2023-06-24T23:09:00.180Z,2.47
2023-06-24T23:14:04.369Z,3.70
2023-06-24T23:19:08.447Z,7.80
2023-06-24T23:24:15.572Z,3.90
2023-06-24T23:29:22.626Z,2.23
2023-06-24T23:34:26.674Z,2.00
2023-06-24T23:39:32.126Z,1.83
2023-06-24T23:44:36.208Z,1.70
2023-06-24T23:49:39.830Z,1.20
2023-06-24T23:54:44.789Z,1.50
2023-06-24T23:59:48.358Z,1.60
